Bareilly — A8KG7 — position and weather

sailwx.info

Track history (hours):
 
Tides and Currents Weather Stations Pressure Air Temp Water Temp Dewpoint Dewpoint Depression Visibility Wind Speed Wind Dir Waves Ship Positions

Bareilly

Last reported at 2014-Nov-29 00:33 UTC. Time now 2014-Nov-29 01:12 UTC.
Position N 34°21' E 033°23'.

Length 243 m; draft 8.2 m.

Type: Tanker. MMSI: 636013054.

Date/timePositionNaut miles runAvg speedWind from/ knotsBaromVisibWave heightAir tempDewpointWater temp
2014-Nov-29 00:33N 34°21' E 033°23'1 0.7
2014-Nov-28 23:33N 34°21' E 033°22'1 0.6
2014-Nov-28 22:33N 34°21' E 033°21'1 0.5
2014-Nov-28 21:33N 34°21' E 033°21'1 0.6
2014-Nov-28 20:31N 34°22' E 033°20'1 0.6
2014-Nov-28 19:33N 34°22' E 033°19'1 0.6
2014-Nov-28 18:33N 34°22' E 033°19'1 0.6
2014-Nov-28 17:33N 34°23' E 033°18'1 0.9
2014-Nov-28 16:33N 34°23' E 033°18'2 2.3
2014-Nov-28 15:33N 34°26' E 033°18'5 5.2
2014-Nov-28 14:33N 34°31' E 033°19'6 6.1
2014-Nov-28 13:33N 34°32' E 033°26'3 0.1
2014-Nov-27 09:32N 34°33' E 033°30'1 0.9
2014-Nov-27 08:11N 34°32' E 033°28'2 3.0
2014-Nov-27 07:33N 34°31' E 033°26'5 4.8
2014-Nov-27 06:34N 34°29' E 033°21'4 4.4
2014-Nov-27 05:34N 34°28' E 033°16'1 0.5
2014-Nov-27 04:34N 34°28' E 033°16'1 0.9
2014-Nov-27 03:33N 34°28' E 033°16'1 1.2
2014-Nov-27 02:34N 34°29' E 033°15'1 0.8
2014-Nov-27 01:34N 34°30' E 033°16'4 3.7
2014-Nov-27 00:34N 34°27' E 033°18'4 4.3
2014-Nov-26 23:34N 34°23' E 033°20'1 0.6
2014-Nov-26 22:34N 34°22' E 033°20'1 0.5
2014-Nov-26 21:33N 34°22' E 033°19'0 0.5
2014-Nov-26 20:33N 34°22' E 033°19'1 0.6
2014-Nov-26 19:33N 34°22' E 033°18'1 0.7
2014-Nov-26 18:34N 34°22' E 033°17'1 0.9
2014-Nov-26 17:33N 34°22' E 033°16'1 1.0
2014-Nov-26 16:32N 34°22' E 033°15'1 1.1
2014-Nov-26 15:33N 34°22' E 033°14'1 1.3
2014-Nov-26 14:33N 34°22' E 033°12'1 1.4
2014-Nov-26 13:34N 34°22' E 033°10'1 1.4
2014-Nov-26 12:34N 34°21' E 033°09'1 1.5
2014-Nov-26 11:34N 34°21' E 033°07'1 1.4
2014-Nov-26 10:34N 34°20' E 033°06'4 4.2
2014-Nov-26 09:34N 34°18' E 033°10'8 7.9
2014-Nov-26 08:30N 34°14' E 033°18'6 0.7
2014-Nov-25 23:21N 34°10' E 033°25'4 2.0
2014-Nov-25 21:33N 34°12' E 033°21'7 2.2
2014-Nov-25 18:12N 34°16' E 033°14'1 2.0
2014-Nov-25 17:33N 34°17' E 033°12'2 1.7
2014-Nov-25 16:33N 34°18' E 033°11'2 1.6
2014-Nov-25 15:33N 34°19' E 033°09'1 1.4
2014-Nov-25 14:34N 34°20' E 033°08'1 1.1
2014-Nov-25 13:34N 34°20' E 033°06'1 0.5
2014-Nov-25 12:34N 34°20' E 033°06'7 7.0
2014-Nov-25 11:34N 34°23' E 032°58'2 2.2
2014-Nov-25 10:34N 34°23' E 032°56'1 0.9
2014-Nov-25 09:34N 34°23' E 032°55'1 0.7
2014-Nov-25 08:34N 34°22' E 032°56'0 0.3
2014-Nov-25 07:22N 34°22' E 032°56'0 0.2
2014-Nov-25 06:33N 34°21' E 032°56'0 0.4
2014-Nov-25 05:34N 34°21' E 032°56'0 0.4
2014-Nov-25 04:34N 34°21' E 032°57'0 0.4
2014-Nov-25 03:34N 34°21' E 032°57'0 0.4
2014-Nov-25 02:33N 34°21' E 032°58'1 0.5
2014-Nov-25 01:33N 34°20' E 032°58'1 0.6
2014-Nov-25 00:34N 34°20' E 032°59'1 0.6
2014-Nov-24 23:33N 34°21' E 032°60'1 0.6
2014-Nov-24 22:34N 34°21' E 033°00'1 0.7
2014-Nov-24 21:33N 34°21' E 033°01'1 0.7
2014-Nov-24 20:33N 34°21' E 033°02'1 0.7
2014-Nov-24 19:34N 34°21' E 033°03'1 0.7
2014-Nov-24 18:34N 34°21' E 033°04'1 0.7
2014-Nov-24 17:34N 34°21' E 033°04'1 0.8
2014-Nov-24 16:33N 34°21' E 033°05'1 0.7
2014-Nov-24 15:34N 34°20' E 033°06'8 7.9
2014-Nov-24 14:33N 34°20' E 032°56'1212.0
2014-Nov-24 13:33N 34°21' E 032°42'1412.4
2014-Nov-24 12:25N 34°22' E 032°25'  
2014-Nov-21 13:30N 35°59' E 014°52'  
2014-Nov-19 04:31N 35°59' E 014°52'0 0.0
2014-Nov-19 03:31N 35°59' E 014°52'0 0.0
2014-Nov-19 02:31N 35°59' E 014°52'0 0.0
2014-Nov-19 01:31N 35°59' E 014°52'  
Track history (hours):
 
Tides and Currents Weather Stations Pressure Air Temp Water Temp Dewpoint Dewpoint Depression Visibility Wind Speed Wind Dir Waves Ship Positions

Bareilly

Last reported at 2014-Nov-29 00:33 UTC. Time now 2014-Nov-29 01:12 UTC.
Position N 34°21' E 033°23'.

Length 243 m; draft 8.2 m.

Type: Tanker. MMSI: 636013054.

Date/timePositionNaut miles runAvg speedWind from/ knotsBaromVisibWave heightAir tempDewpointWater temp
2014-Nov-29 00:33N 34°21' E 033°23'1 0.7
2014-Nov-28 23:33N 34°21' E 033°22'1 0.6
2014-Nov-28 22:33N 34°21' E 033°21'1 0.5
2014-Nov-28 21:33N 34°21' E 033°21'1 0.6
2014-Nov-28 20:31N 34°22' E 033°20'1 0.6
2014-Nov-28 19:33N 34°22' E 033°19'1 0.6
2014-Nov-28 18:33N 34°22' E 033°19'1 0.6
2014-Nov-28 17:33N 34°23' E 033°18'1 0.9
2014-Nov-28 16:33N 34°23' E 033°18'2 2.3
2014-Nov-28 15:33N 34°26' E 033°18'5 5.2
2014-Nov-28 14:33N 34°31' E 033°19'6 6.1
2014-Nov-28 13:33N 34°32' E 033°26'3 0.1
2014-Nov-27 09:32N 34°33' E 033°30'1 0.9
2014-Nov-27 08:11N 34°32' E 033°28'2 3.0
2014-Nov-27 07:33N 34°31' E 033°26'5 4.8
2014-Nov-27 06:34N 34°29' E 033°21'4 4.4
2014-Nov-27 05:34N 34°28' E 033°16'1 0.5
2014-Nov-27 04:34N 34°28' E 033°16'1 0.9
2014-Nov-27 03:33N 34°28' E 033°16'1 1.2
2014-Nov-27 02:34N 34°29' E 033°15'1 0.8
2014-Nov-27 01:34N 34°30' E 033°16'4 3.7
2014-Nov-27 00:34N 34°27' E 033°18'4 4.3
2014-Nov-26 23:34N 34°23' E 033°20'1 0.6
2014-Nov-26 22:34N 34°22' E 033°20'1 0.5
2014-Nov-26 21:33N 34°22' E 033°19'0 0.5
2014-Nov-26 20:33N 34°22' E 033°19'1 0.6
2014-Nov-26 19:33N 34°22' E 033°18'1 0.7
2014-Nov-26 18:34N 34°22' E 033°17'1 0.9
2014-Nov-26 17:33N 34°22' E 033°16'1 1.0
2014-Nov-26 16:32N 34°22' E 033°15'1 1.1
2014-Nov-26 15:33N 34°22' E 033°14'1 1.3
2014-Nov-26 14:33N 34°22' E 033°12'1 1.4
2014-Nov-26 13:34N 34°22' E 033°10'1 1.4
2014-Nov-26 12:34N 34°21' E 033°09'1 1.5
2014-Nov-26 11:34N 34°21' E 033°07'1 1.4
2014-Nov-26 10:34N 34°20' E 033°06'4 4.2
2014-Nov-26 09:34N 34°18' E 033°10'8 7.9
2014-Nov-26 08:30N 34°14' E 033°18'6 0.7
2014-Nov-25 23:21N 34°10' E 033°25'4 2.0
2014-Nov-25 21:33N 34°12' E 033°21'7 2.2
2014-Nov-25 18:12N 34°16' E 033°14'1 2.0
2014-Nov-25 17:33N 34°17' E 033°12'2 1.7
2014-Nov-25 16:33N 34°18' E 033°11'2 1.6
2014-Nov-25 15:33N 34°19' E 033°09'1 1.4
2014-Nov-25 14:34N 34°20' E 033°08'1 1.1
2014-Nov-25 13:34N 34°20' E 033°06'1 0.5
2014-Nov-25 12:34N 34°20' E 033°06'7 7.0
2014-Nov-25 11:34N 34°23' E 032°58'2 2.2
2014-Nov-25 10:34N 34°23' E 032°56'1 0.9
2014-Nov-25 09:34N 34°23' E 032°55'1 0.7
2014-Nov-25 08:34N 34°22' E 032°56'0 0.3
2014-Nov-25 07:22N 34°22' E 032°56'0 0.2
2014-Nov-25 06:33N 34°21' E 032°56'0 0.4
2014-Nov-25 05:34N 34°21' E 032°56'0 0.4
2014-Nov-25 04:34N 34°21' E 032°57'0 0.4
2014-Nov-25 03:34N 34°21' E 032°57'0 0.4
2014-Nov-25 02:33N 34°21' E 032°58'1 0.5
2014-Nov-25 01:33N 34°20' E 032°58'1 0.6
2014-Nov-25 00:34N 34°20' E 032°59'1 0.6
2014-Nov-24 23:33N 34°21' E 032°60'1 0.6
2014-Nov-24 22:34N 34°21' E 033°00'1 0.7
2014-Nov-24 21:33N 34°21' E 033°01'1 0.7
2014-Nov-24 20:33N 34°21' E 033°02'1 0.7
2014-Nov-24 19:34N 34°21' E 033°03'1 0.7
2014-Nov-24 18:34N 34°21' E 033°04'1 0.7
2014-Nov-24 17:34N 34°21' E 033°04'1 0.8
2014-Nov-24 16:33N 34°21' E 033°05'1 0.7
2014-Nov-24 15:34N 34°20' E 033°06'8 7.9
2014-Nov-24 14:33N 34°20' E 032°56'1212.0
2014-Nov-24 13:33N 34°21' E 032°42'1412.4
2014-Nov-24 12:25N 34°22' E 032°25'  
2014-Nov-21 13:30N 35°59' E 014°52'  
2014-Nov-19 04:31N 35°59' E 014°52'0 0.0
2014-Nov-19 03:31N 35°59' E 014°52'0 0.0
2014-Nov-19 02:31N 35°59' E 014°52'0 0.0
2014-Nov-19 01:31N 35°59' E 014°52'  

Dump ship's entire track history